Time;durP1;ratioP1;P1;durP2;ratioP2;P2;SDS_P1;SDS_P2;PMS_P1;PMS_P2;Temp;Humidity;BMP_temperature;BMP_pressure;BME280_temperature;BME280_humidity;BME280_pressure;Samples;Min_cycle;Max_cycle;Signal;HPM_P1;HPM_P2
2024/03/13 00:01:23;;;;;;;10.15;5.97;;;;;;;;;;5065694;28;20465;-55
2024/03/13 00:03:49;;;;;;;10.90;6.40;;;;;;;;;;5064929;28;20036;-55
2024/03/13 00:06:15;;;;;;;10.60;6.20;;;;;;;;;;5064922;28;20082;-56
2024/03/13 00:08:41;;;;;;;10.32;6.10;;;;;;;;;;5065245;28;20028;-54
2024/03/13 00:11:07;;;;;;;10.20;6.00;;;;;;;;;;5065607;28;20025;-57
2024/03/13 00:13:34;;;;;;;10.40;6.10;;;;;;;;;;5065011;28;20032;-58
2024/03/13 00:16:00;;;;;;;10.25;6.03;;;;;;;;;;5064981;28;20044;-53
2024/03/13 00:18:26;;;;;;;10.20;6.05;;;;;;;;;;5065311;28;20033;-54
2024/03/13 00:20:52;;;;;;;10.10;6.00;;;;;;;;;;5068391;28;20456;-57
2024/03/13 00:23:18;;;;;;;10.30;6.07;;;;;;;;;;5068112;28;20028;-53
2024/03/13 00:25:45;;;;;;;10.27;6.00;;;;;;;;;;5036240;28;20032;-55
2024/03/13 00:28:11;;;;;;;10.40;6.10;;;;;;;;;;5048436;28;20013;-56
2024/03/13 00:30:37;;;;;;;10.52;6.18;;;;;;;;;;5049001;28;20021;-57
2024/03/13 00:33:04;;;;;;;10.50;6.20;;;;;;;;;;5053881;28;20398;-55
2024/03/13 00:35:30;;;;;;;10.52;6.72;;;;;;;;;;5054521;28;20031;-59
2024/03/13 00:37:59;;;;;;;10.20;6.00;;;;;;;;;;5057107;28;20115;-54
2024/03/13 00:40:25;;;;;;;;;;;;;;;;;;5058527;28;20116;-55
2024/03/13 00:42:56;;;;;;;9.52;5.63;;;;;;;;;;5057802;28;20017;-56
2024/03/13 00:45:22;;;;;;;9.80;5.80;;;;;;;;;;5076077;28;20025;-56
2024/03/13 00:47:48;;;;;;;9.82;5.85;;;;;;;;;;5057473;28;20033;-57
2024/03/13 00:50:15;;;;;;;10.30;6.00;;;;;;;;;;5076670;28;20624;-59
2024/03/13 00:52:42;;;;;;;9.85;5.80;;;;;;;;;;5075176;28;20550;-55
2024/03/13 00:55:10;;;;;;;9.80;5.80;;;;;;;;;;5075871;28;20482;-56
2024/03/13 00:57:36;;;;;;;10.40;6.10;;;;;;;;;;5077265;28;20027;-56
2024/03/13 01:00:04;;;;;;;9.98;5.90;;;;;;;;;;5079635;28;20024;-55
2024/03/13 01:02:30;;;;;;;9.57;5.65;;;;;;;;;;5076059;28;20024;-56
2024/03/13 01:04:56;;;;;;;9.90;5.80;;;;;;;;;;5072340;28;20031;-56
2024/03/13 01:07:22;;;;;;;9.40;5.60;;;;;;;;;;5054281;28;20012;-56
2024/03/13 01:09:49;;;;;;;9.82;5.80;;;;;;;;;;5072134;28;20387;-56
2024/03/13 01:12:18;;;;;;;25.13;16.33;;;;;;;;;;5071453;28;20023;-59
2024/03/13 01:14:44;;;;;;;9.90;5.82;;;;;;;;;;5071901;28;20381;-57
2024/03/13 01:17:10;;;;;;;9.70;5.70;;;;;;;;;;5071575;28;20107;-56
2024/03/13 01:19:37;;;;;;;9.68;5.70;;;;;;;;;;5078993;28;20036;-57
2024/03/13 01:22:05;;;;;;;9.80;5.80;;;;;;;;;;5076568;28;20104;-55
2024/03/13 01:24:34;;;;;;;9.77;5.75;;;;;;;;;;5076676;28;20554;-57
2024/03/13 01:27:00;;;;;;;9.25;5.47;;;;;;;;;;5080671;28;20029;-59
2024/03/13 01:29:26;;;;;;;9.27;5.50;;;;;;;;;;5066617;28;20510;-59
2024/03/13 01:31:52;;;;;;;9.40;5.50;;;;;;;;;;5082009;28;20547;-60
2024/03/13 01:34:20;;;;;;;9.27;5.50;;;;;;;;;;5058490;28;20547;-57
2024/03/13 01:39:31;;;;;;;9.50;5.60;;;;;;;;;;5072006;28;20082;-53
2024/03/13 01:56:05;;;;;;;10.18;6.00;;;;;;;;;;5070081;28;20080;-57
2024/03/13 01:58:40;;;;;;;10.80;6.35;;;;;;;;;;5070645;28;20021;-55
2024/03/13 02:03:51;;;;;;;11.50;6.80;;;;;;;;;;5069562;28;20051;-58
2024/03/13 02:06:17;;;;;;;11.90;7.00;;;;;;;;;;5069768;28;20020;-58
2024/03/13 02:08:44;;;;;;;12.18;7.10;;;;;;;;;;5070083;28;20052;-55
2024/03/13 02:11:11;;;;;;;12.38;7.25;;;;;;;;;;5069595;28;20031;-56
2024/03/13 02:13:39;;;;;;;12.85;7.50;;;;;;;;;;5069302;28;20427;-56
2024/03/13 02:16:06;;;;;;;12.75;7.43;;;;;;;;;;5069922;28;20047;-56
2024/03/13 02:18:32;;;;;;;12.90;7.50;;;;;;;;;;5069862;28;20024;-59
2024/03/13 02:21:01;;;;;;;13.00;7.55;;;;;;;;;;5069619;28;20031;-55
2024/03/13 02:23:29;;;;;;;12.95;7.60;;;;;;;;;;5068667;28;20036;-57
2024/03/13 02:25:55;;;;;;;13.20;7.80;;;;;;;;;;5069270;28;20398;-56
2024/03/13 02:28:34;;;;;;;13.02;7.70;;;;;;;;;;5069213;28;20021;-57
2024/03/13 02:31:00;;;;;;;13.32;7.88;;;;;;;;;;5069306;28;20048;-55
2024/03/13 02:33:26;;;;;;;13.80;9.23;;;;;;;;;;5068831;28;20502;-57
2024/03/13 02:35:52;;;;;;;13.15;7.80;;;;;;;;;;5069188;28;20037;-56
2024/03/13 02:38:18;;;;;;;13.25;7.80;;;;;;;;;;5051313;28;20062;-56
2024/03/13 02:40:44;;;;;;;13.35;7.82;;;;;;;;;;5068605;28;20024;-53
2024/03/13 02:43:11;;;;;;;13.20;7.70;;;;;;;;;;5068468;28;20028;-54
2024/03/13 02:45:37;;;;;;;13.10;7.70;;;;;;;;;;5069268;28;20079;-52
2024/03/13 02:48:05;;;;;;;12.73;7.50;;;;;;;;;;5069648;28;20033;-56
2024/03/13 02:50:31;;;;;;;12.95;7.57;;;;;;;;;;5069345;28;20024;-56
2024/03/13 02:52:57;;;;;;;13.05;7.63;;;;;;;;;;5068470;28;20536;-57
2024/03/13 02:55:23;;;;;;;12.90;7.50;;;;;;;;;;5068875;28;20079;-52
2024/03/13 02:57:49;;;;;;;14.48;9.05;;;;;;;;;;5069134;28;20032;-56
2024/03/13 03:00:16;;;;;;;13.10;7.93;;;;;;;;;;5069116;28;20025;-57
2024/03/13 03:02:42;;;;;;;13.13;7.70;;;;;;;;;;5067307;28;20067;-57
2024/03/13 03:05:08;;;;;;;13.23;7.70;;;;;;;;;;5068841;28;20029;-56
2024/03/13 03:07:34;;;;;;;13.23;7.68;;;;;;;;;;5068982;28;20035;-55
2024/03/13 03:10:01;;;;;;;13.18;7.70;;;;;;;;;;5050779;28;20389;-57
2024/03/13 03:12:28;;;;;;;13.15;7.70;;;;;;;;;;5068090;28;20148;-59
2024/03/13 03:14:59;;;;;;;12.90;7.50;;;;;;;;;;5068662;28;20024;-55
2024/03/13 03:17:25;;;;;;;13.27;7.70;;;;;;;;;;5050803;28;20383;-56
2024/03/13 03:19:51;;;;;;;13.32;7.90;;;;;;;;;;5050797;28;20031;-56
2024/03/13 03:22:17;;;;;;;13.27;7.78;;;;;;;;;;5068154;28;20024;-55
2024/03/13 03:24:44;;;;;;;12.95;7.57;;;;;;;;;;5068598;28;20020;-53
2024/03/13 03:27:10;;;;;;;13.40;8.10;;;;;;;;;;5068838;28;20013;-56
2024/03/13 03:29:38;;;;;;;13.32;7.90;;;;;;;;;;5068965;28;20044;-57
2024/03/13 03:32:05;;;;;;;13.05;7.55;;;;;;;;;;5050567;28;20482;-56
2024/03/13 03:34:31;;;;;;;13.20;7.70;;;;;;;;;;5068306;28;20021;-55
2024/03/13 03:36:57;;;;;;;13.02;7.60;;;;;;;;;;5068672;28;20417;-57
2024/03/13 03:39:25;;;;;;;13.23;7.78;;;;;;;;;;5068568;28;20024;-57
2024/03/13 03:41:54;;;;;;;12.77;7.45;;;;;;;;;;5068310;28;20025;-54
2024/03/13 03:44:20;;;;;;;13.18;7.70;;;;;;;;;;5049932;28;20528;-57
2024/03/13 03:46:46;;;;;;;12.82;7.47;;;;;;;;;;5068418;28;20016;-54
2024/03/13 03:49:12;;;;;;;13.10;7.70;;;;;;;;;;5068375;28;20036;-58
2024/03/13 03:51:38;;;;;;;13.07;7.65;;;;;;;;;;5068054;28;20038;-57
2024/03/13 03:54:05;;;;;;;14.80;9.95;;;;;;;;;;5071733;28;20104;-56
2024/03/13 03:56:32;;;;;;;12.93;7.63;;;;;;;;;;5072135;28;20024;-57
2024/03/13 03:58:58;;;;;;;13.27;7.80;;;;;;;;;;5072456;28;20021;-53
2024/03/13 04:01:27;;;;;;;13.32;7.90;;;;;;;;;;5054328;28;20403;-58
2024/03/13 04:03:53;;;;;;;13.38;8.02;;;;;;;;;;5071827;28;20379;-53
2024/03/13 04:06:20;;;;;;;13.32;7.95;;;;;;;;;;5072281;28;20091;-58
2024/03/13 04:08:46;;;;;;;13.38;7.90;;;;;;;;;;5072163;28;20368;-56
2024/03/13 04:11:12;;;;;;;13.32;7.82;;;;;;;;;;5053902;28;20032;-50
2024/03/13 04:13:42;;;;;;;13.15;7.65;;;;;;;;;;5071598;28;20021;-56
2024/03/13 04:16:10;;;;;;;13.13;7.70;;;;;;;;;;5071919;28;20040;-54
2024/03/13 04:18:36;;;;;;;13.20;7.78;;;;;;;;;;5071930;28;20029;-55
2024/03/13 04:21:03;;;;;;;12.75;7.43;;;;;;;;;;5053645;28;20032;-55
2024/03/13 04:23:29;;;;;;;13.15;7.70;;;;;;;;;;5071070;28;20024;-56
2024/03/13 04:25:55;;;;;;;13.18;7.70;;;;;;;;;;5071551;28;20559;-56
2024/03/13 04:28:22;;;;;;;12.98;7.60;;;;;;;;;;5071584;28;20483;-55
2024/03/13 04:30:48;;;;;;;12.95;7.57;;;;;;;;;;5071730;28;20057;-54
2024/03/13 04:33:18;;;;;;;13.15;7.70;;;;;;;;;;5070987;28;20089;-53
2024/03/13 04:35:44;;;;;;;13.10;7.70;;;;;;;;;;5071504;28;20020;-55
2024/03/13 04:38:13;;;;;;;13.05;7.63;;;;;;;;;;5071642;28;20033;-55
2024/03/13 04:40:39;;;;;;;13.10;7.68;;;;;;;;;;5053624;28;20029;-51
2024/03/13 04:43:08;;;;;;;12.93;7.50;;;;;;;;;;5070511;28;20036;-52
2024/03/13 04:45:37;;;;;;;13.00;7.53;;;;;;;;;;5071411;28;20473;-54
2024/03/13 04:48:07;;;;;;;13.05;7.60;;;;;;;;;;5071614;28;20667;-55
2024/03/13 04:50:38;;;;;;;12.75;7.40;;;;;;;;;;5071903;28;20029;-53
2024/03/13 04:53:04;;;;;;;13.18;7.72;;;;;;;;;;5071124;28;20041;-56
2024/03/13 04:55:30;;;;;;;13.05;7.60;;;;;;;;;;5071551;28;20462;-57
2024/03/13 04:57:56;;;;;;;12.80;7.45;;;;;;;;;;5053642;28;20056;-55
2024/03/13 05:00:23;;;;;;;13.20;7.80;;;;;;;;;;5071226;28;20024;-54
2024/03/13 05:02:49;;;;;;;13.23;8.20;;;;;;;;;;5070353;28;20063;-61
2024/03/13 05:05:15;;;;;;;13.23;7.82;;;;;;;;;;5070237;28;20028;-54
2024/03/13 05:07:44;;;;;;;13.27;7.90;;;;;;;;;;5053199;28;20508;-54
2024/03/13 05:10:10;;;;;;;13.30;7.90;;;;;;;;;;5071194;28;20025;-52
2024/03/13 05:12:37;;;;;;;13.40;8.18;;;;;;;;;;5070361;28;20024;-56
2024/03/13 05:15:06;;;;;;;13.05;7.60;;;;;;;;;;5070828;28;20080;-56
2024/03/13 05:17:36;;;;;;;13.30;7.90;;;;;;;;;;5071177;28;20016;-55
2024/03/13 05:20:06;;;;;;;13.23;7.88;;;;;;;;;;5071264;28;20390;-55
2024/03/13 05:22:32;;;;;;;13.27;7.88;;;;;;;;;;5070627;28;20086;-55
2024/03/13 05:24:58;;;;;;;13.40;8.10;;;;;;;;;;5070824;28;20082;-53
2024/03/13 05:27:25;;;;;;;13.48;8.30;;;;;;;;;;5070981;28;20078;-55
2024/03/13 05:29:52;;;;;;;13.45;8.20;;;;;;;;;;5070543;28;20040;-57
2024/03/13 05:32:18;;;;;;;13.40;8.40;;;;;;;;;;5069942;28;20474;-56
2024/03/13 05:34:44;;;;;;;13.45;8.15;;;;;;;;;;5070598;28;20020;-54
2024/03/13 05:37:12;;;;;;;13.50;8.40;;;;;;;;;;5070351;28;20048;-56
2024/03/13 05:39:38;;;;;;;13.40;8.10;;;;;;;;;;5070436;28;20044;-57
2024/03/13 05:42:04;;;;;;;13.38;8.00;;;;;;;;;;5069949;28;20450;-56
2024/03/13 05:44:30;;;;;;;13.35;8.00;;;;;;;;;;5069461;28;20039;-53
2024/03/13 05:46:56;;;;;;;13.80;9.35;;;;;;;;;;5070157;28;20020;-60
2024/03/13 05:49:22;;;;;;;13.40;8.30;;;;;;;;;;5069772;28;20029;-54
2024/03/13 05:51:48;;;;;;;16.42;9.85;;;;;;;;;;5069703;28;20028;-56
2024/03/13 05:54:14;;;;;;;13.43;8.10;;;;;;;;;;5051585;28;20104;-55
2024/03/13 05:56:40;;;;;;;13.43;8.13;;;;;;;;;;5069728;28;20120;-54
2024/03/13 05:59:06;;;;;;;13.48;8.35;;;;;;;;;;5069742;28;20451;-55
2024/03/13 06:01:32;;;;;;;14.00;10.07;;;;;;;;;;5069628;28;20027;-57
2024/03/13 06:03:59;;;;;;;13.35;8.23;;;;;;;;;;5051222;28;20134;-54
2024/03/13 06:06:25;;;;;;;13.43;8.20;;;;;;;;;;5069689;28;20040;-57
2024/03/13 06:08:51;;;;;;;13.35;8.30;;;;;;;;;;5069601;28;20115;-60
2024/03/13 06:11:18;;;;;;;13.55;8.50;;;;;;;;;;5069735;28;20518;-55
2024/03/13 06:13:45;;;;;;;13.70;9.00;;;;;;;;;;5068806;28;20047;-60
2024/03/13 06:16:11;;;;;;;13.63;8.90;;;;;;;;;;5068465;28;20035;-55
2024/03/13 06:18:37;;;;;;;13.52;8.45;;;;;;;;;;5069406;28;20557;-55
2024/03/13 06:21:04;;;;;;;14.20;9.15;;;;;;;;;;5069059;28;20020;-58
2024/03/13 06:23:30;;;;;;;13.48;8.25;;;;;;;;;;5068675;28;20055;-54
2024/03/13 06:25:58;;;;;;;13.52;8.60;;;;;;;;;;5069334;28;20474;-58
2024/03/13 06:31:08;;;;;;;13.32;8.00;;;;;;;;;;5069692;28;20060;-56
2024/03/13 06:33:34;;;;;;;13.00;7.68;;;;;;;;;;5068792;28;20139;-57
2024/03/13 06:36:00;;;;;;;12.70;7.40;;;;;;;;;;5069125;28;20569;-57
2024/03/13 06:38:27;;;;;;;12.75;7.50;;;;;;;;;;5069290;28;20020;-56
2024/03/13 06:40:53;;;;;;;13.18;7.78;;;;;;;;;;5069156;28;20024;-59
2024/03/13 06:43:19;;;;;;;13.10;7.70;;;;;;;;;;5068770;28;20474;-58
2024/03/13 06:45:49;;;;;;;12.80;7.47;;;;;;;;;;5066956;28;20107;-57
2024/03/13 06:48:15;;;;;;;12.95;7.55;;;;;;;;;;5058470;28;20048;-55
2024/03/13 06:50:44;;;;;;;13.25;7.88;;;;;;;;;;5062410;28;20025;-56
2024/03/13 06:53:10;;;;;;;12.93;7.55;;;;;;;;;;5030242;28;20021;-56
2024/03/13 06:55:36;;;;;;;12.80;7.60;;;;;;;;;;5060664;28;20542;-53
2024/03/13 06:58:02;;;;;;;12.95;7.57;;;;;;;;;;5050626;28;20031;-54
2024/03/13 07:00:28;;;;;;;13.18;7.80;;;;;;;;;;5068616;28;20734;-55
2024/03/13 07:02:55;;;;;;;13.23;7.88;;;;;;;;;;5065917;28;20033;-53
2024/03/13 07:05:22;;;;;;;13.13;7.75;;;;;;;;;;5048315;28;20029;-55
2024/03/13 07:07:49;;;;;;;12.93;7.55;;;;;;;;;;5048245;28;20027;-57
2024/03/13 07:10:15;;;;;;;13.15;7.85;;;;;;;;;;5048658;28;20017;-55
2024/03/13 07:12:42;;;;;;;13.18;7.85;;;;;;;;;;5047477;28;20017;-52
2024/03/13 07:15:10;;;;;;;13.23;7.82;;;;;;;;;;5048169;28;20025;-54
2024/03/13 07:17:38;;;;;;;13.30;8.00;;;;;;;;;;5048404;28;20036;-55
2024/03/13 07:20:05;;;;;;;13.48;8.40;;;;;;;;;;5051162;28;20021;-56
2024/03/13 07:22:31;;;;;;;13.27;8.05;;;;;;;;;;5067877;28;20020;-54
2024/03/13 07:24:58;;;;;;;13.40;8.10;;;;;;;;;;5050616;28;20127;-57
2024/03/13 07:27:24;;;;;;;13.27;7.95;;;;;;;;;;5070555;28;20064;-54
2024/03/13 07:29:50;;;;;;;13.43;8.15;;;;;;;;;;5075100;28;20037;-55
2024/03/13 07:32:16;;;;;;;13.40;8.10;;;;;;;;;;5074643;28;20066;-54
2024/03/13 07:34:43;;;;;;;13.20;7.90;;;;;;;;;;5075689;28;20051;-57
2024/03/13 07:37:12;;;;;;;13.52;8.43;;;;;;;;;;5075787;28;20027;-56
2024/03/13 07:39:39;;;;;;;13.52;8.50;;;;;;;;;;5075461;28;20044;-52
2024/03/13 07:42:06;;;;;;;13.40;8.20;;;;;;;;;;5075327;28;20024;-55
2024/03/13 07:44:32;;;;;;;13.47;8.23;;;;;;;;;;5074775;28;20075;-53
2024/03/13 07:46:58;;;;;;;13.48;8.30;;;;;;;;;;5057291;28;20262;-56
2024/03/13 07:49:26;;;;;;;13.43;8.43;;;;;;;;;;5075213;28;20032;-52
2024/03/13 07:51:58;;;;;;;13.70;8.90;;;;;;;;;;5075316;28;20017;-55
2024/03/13 07:54:24;;;;;;;13.77;9.07;;;;;;;;;;5074692;28;20028;-57
2024/03/13 07:56:52;;;;;;;13.63;8.80;;;;;;;;;;5074900;28;20042;-53
2024/03/13 07:59:18;;;;;;;13.93;9.60;;;;;;;;;;5075728;28;20394;-57
2024/03/13 08:01:45;;;;;;;13.90;9.65;;;;;;;;;;5074701;28;20266;-57
2024/03/13 08:04:11;;;;;;;14.05;10.18;;;;;;;;;;5056271;28;20494;-53
2024/03/13 08:06:40;;;;;;;14.27;10.55;;;;;;;;;;5074739;28;20021;-58
2024/03/13 08:09:06;;;;;;;14.38;10.90;;;;;;;;;;5056744;28;20024;-55
2024/03/13 08:11:32;;;;;;;14.40;11.07;;;;;;;;;;5075040;28;20029;-55
2024/03/13 08:14:02;;;;;;;14.10;10.32;;;;;;;;;;5074288;28;20381;-58
2024/03/13 08:16:28;;;;;;;14.25;10.60;;;;;;;;;;5074408;28;20021;-58
2024/03/13 08:18:54;;;;;;;14.82;11.52;;;;;;;;;;5074765;28;20055;-54
2024/03/13 08:21:20;;;;;;;15.80;11.40;;;;;;;;;;5074536;28;20032;-57
2024/03/13 08:23:46;;;;;;;13.93;9.85;;;;;;;;;;5073987;28;20052;-53
2024/03/13 08:26:12;;;;;;;14.10;10.30;;;;;;;;;;5074932;28;20020;-54
2024/03/13 08:28:40;;;;;;;14.07;10.15;;;;;;;;;;5075328;28;20078;-54
2024/03/13 08:31:06;;;;;;;13.97;9.80;;;;;;;;;;5056675;28;20020;-55
2024/03/13 08:33:32;;;;;;;13.93;9.63;;;;;;;;;;5074329;28;20052;-53
2024/03/13 08:35:58;;;;;;;14.13;10.38;;;;;;;;;;5074430;28;20052;-55
2024/03/13 08:38:24;;;;;;;14.07;10.27;;;;;;;;;;5073385;28;20067;-56
2024/03/13 08:40:50;;;;;;;14.32;10.90;;;;;;;;;;5070596;28;20056;-57
2024/03/13 08:43:19;;;;;;;14.40;11.10;;;;;;;;;;5070181;28;20103;-54
2024/03/13 08:45:45;;;;;;;17.63;12.35;;;;;;;;;;5071207;28;20646;-55
2024/03/13 08:48:11;;;;;;;14.43;11.13;;;;;;;;;;5071191;28;20053;-53
2024/03/13 08:50:38;;;;;;;14.60;11.88;;;;;;;;;;5071191;28;20032;-59
2024/03/13 08:53:04;;;;;;;14.38;11.07;;;;;;;;;;5052561;28;20068;-57
2024/03/13 08:55:34;;;;;;;14.35;11.13;;;;;;;;;;5070974;28;20051;-54
2024/03/13 08:58:01;;;;;;;14.73;11.13;;;;;;;;;;5071084;28;20529;-56
2024/03/13 09:00:27;;;;;;;14.00;10.02;;;;;;;;;;5071201;28;20077;-56
2024/03/13 09:03:00;;;;;;;14.05;10.30;;;;;;;;;;5069180;28;20024;-56
2024/03/13 09:05:28;;;;;;;14.10;10.13;;;;;;;;;;5070904;28;20048;-54
2024/03/13 09:07:54;;;;;;;14.02;10.13;;;;;;;;;;5070911;28;20074;-54
2024/03/13 09:10:21;;;;;;;15.68;10.00;;;;;;;;;;5070748;28;20155;-49
2024/03/13 09:12:47;;;;;;;13.73;9.27;;;;;;;;;;5069712;28;20020;-55
2024/03/13 09:15:16;;;;;;;13.80;9.38;;;;;;;;;;5070433;28;20016;-52
2024/03/13 09:17:42;;;;;;;14.10;9.93;;;;;;;;;;5070661;28;20158;-54
2024/03/13 09:20:08;;;;;;;14.70;10.50;;;;;;;;;;5070446;28;20036;-56
2024/03/13 09:22:34;;;;;;;14.73;11.20;;;;;;;;;;5069486;28;20119;-55
2024/03/13 09:25:00;;;;;;;14.60;10.57;;;;;;;;;;5070213;28;20158;-53
2024/03/13 09:27:26;;;;;;;14.52;10.23;;;;;;;;;;5070379;28;20482;-53
2024/03/13 09:29:53;;;;;;;14.10;10.43;;;;;;;;;;5070122;28;20030;-54
2024/03/13 09:32:21;;;;;;;15.27;10.20;;;;;;;;;;5059904;28;20020;-54
2024/03/13 09:34:47;;;;;;;13.77;9.25;;;;;;;;;;5052634;28;20029;-53
2024/03/13 09:37:16;;;;;;;13.75;9.32;;;;;;;;;;5050219;28;20107;-54
2024/03/13 09:39:42;;;;;;;14.10;10.13;;;;;;;;;;5050080;28;20048;-55
2024/03/13 09:42:14;;;;;;;14.75;12.18;;;;;;;;;;5050062;28;20029;-55
2024/03/13 09:44:40;;;;;;;14.15;9.88;;;;;;;;;;5048812;28;20029;-53
2024/03/13 09:47:06;;;;;;;13.85;9.48;;;;;;;;;;5031755;28;20088;-54
2024/03/13 09:49:33;;;;;;;14.00;9.80;;;;;;;;;;5066480;28;20027;-54
2024/03/13 09:51:59;;;;;;;15.35;9.25;;;;;;;;;;5068829;28;20032;-54
2024/03/13 09:54:26;;;;;;;13.82;9.35;;;;;;;;;;5069397;28;20021;-56
2024/03/13 09:56:52;;;;;;;13.82;9.10;;;;;;;;;;5069275;28;20077;-56
2024/03/13 09:59:18;;;;;;;13.57;8.73;;;;;;;;;;5051129;28;20028;-54
2024/03/13 10:01:51;;;;;;;13.75;9.50;;;;;;;;;;5069428;28;20025;-50
2024/03/13 10:04:24;;;;;;;15.10;9.75;;;;;;;;;;5069118;28;20036;-58
2024/03/13 10:06:56;;;;;;;13.68;9.07;;;;;;;;;;5069762;28;20215;-50
2024/03/13 10:09:23;;;;;;;13.95;9.50;;;;;;;;;;5069701;28;20020;-53
2024/03/13 10:11:51;;;;;;;14.93;10.88;;;;;;;;;;5069373;28;20102;-54
2024/03/13 10:14:18;;;;;;;13.80;9.23;;;;;;;;;;5069211;28;20024;-55
2024/03/13 10:16:47;;;;;;;13.75;9.38;;;;;;;;;;5069480;28;20048;-52
2024/03/13 10:19:16;;;;;;;17.63;10.55;;;;;;;;;;5069534;28;20028;-53
2024/03/13 10:21:44;;;;;;;13.90;9.60;;;;;;;;;;5069292;28;20032;-55
2024/03/13 10:24:11;;;;;;;14.50;11.27;;;;;;;;;;5068894;28;20108;-55
2024/03/13 10:26:40;;;;;;;14.20;9.70;;;;;;;;;;5069144;28;20028;-53
2024/03/13 10:29:10;;;;;;;14.00;9.60;;;;;;;;;;5069125;28;20096;-54
2024/03/13 10:31:39;;;;;;;14.00;9.93;;;;;;;;;;5068989;28;20024;-55
2024/03/13 10:34:07;;;;;;;;;;;;;;;;;;5051571;28;20033;-55
2024/03/13 10:36:33;;;;;;;13.70;9.00;;;;;;;;;;5069046;28;20407;-52
2024/03/13 10:39:04;;;;;;;13.65;8.98;;;;;;;;;;5069107;28;20024;-54
2024/03/13 10:41:30;;;;;;;13.73;9.35;;;;;;;;;;5068949;28;20027;-54
2024/03/13 10:43:56;;;;;;;13.60;8.88;;;;;;;;;;5068226;28;20020;-54
2024/03/13 10:46:23;;;;;;;13.73;9.30;;;;;;;;;;5068783;28;20074;-54
2024/03/13 10:48:49;;;;;;;13.75;9.25;;;;;;;;;;5068451;28;20024;-55
2024/03/13 10:51:16;;;;;;;13.80;9.30;;;;;;;;;;5068212;28;20025;-56
2024/03/13 10:53:45;;;;;;;14.43;9.90;;;;;;;;;;5067866;28;20108;-54
2024/03/13 10:56:14;;;;;;;13.82;9.50;;;;;;;;;;5068151;28;20032;-53
2024/03/13 10:58:43;;;;;;;13.65;8.95;;;;;;;;;;5068675;28;20107;-64
2024/03/13 11:01:18;;;;;;;13.70;8.93;;;;;;;;;;5068177;28;20029;-61
2024/03/13 11:03:45;;;;;;;14.10;9.85;;;;;;;;;;5067589;28;20064;-62
2024/03/13 11:06:14;;;;;;;14.20;9.48;;;;;;;;;;5068416;28;20017;-63
2024/03/13 11:08:41;;;;;;;13.75;9.20;;;;;;;;;;5068281;28;20083;-60
2024/03/13 11:11:13;;;;;;;14.50;10.70;;;;;;;;;;5050211;28;20055;-56
2024/03/13 11:13:49;;;;;;;14.50;9.95;;;;;;;;;;5067980;28;20020;-53
2024/03/13 11:16:16;;;;;;;13.80;9.25;;;;;;;;;;5068412;28;20398;-54
2024/03/13 11:18:43;;;;;;;13.90;9.25;;;;;;;;;;5068756;28;20047;-55
2024/03/13 11:21:12;;;;;;;13.85;9.05;;;;;;;;;;5068017;28;20036;-54
2024/03/13 11:23:43;;;;;;;13.63;8.90;;;;;;;;;;5068056;28;20425;-55
2024/03/13 11:26:12;;;;;;;13.80;9.30;;;;;;;;;;5068613;28;20076;-53
2024/03/13 11:28:38;;;;;;;13.90;9.25;;;;;;;;;;5065348;28;20024;-54
2024/03/13 11:31:05;;;;;;;13.93;9.60;;;;;;;;;;5068327;28;20474;-58
2024/03/13 11:33:31;;;;;;;13.63;8.82;;;;;;;;;;5068092;28;20048;-54
2024/03/13 11:35:58;;;;;;;17.50;11.13;;;;;;;;;;5068206;28;20040;-54
2024/03/13 11:38:24;;;;;;;13.77;9.20;;;;;;;;;;5068462;28;20027;-54
2024/03/13 11:40:51;;;;;;;13.60;8.98;;;;;;;;;;5067729;28;20056;-59
2024/03/13 11:43:22;;;;;;;13.57;8.88;;;;;;;;;;5067095;28;20138;-55
2024/03/13 11:45:48;;;;;;;14.25;10.20;;;;;;;;;;5067871;28;20120;-54
2024/03/13 11:48:15;;;;;;;14.43;9.23;;;;;;;;;;5049744;28;20029;-54
2024/03/13 11:51:05;;;;;;;13.93;9.35;;;;;;;;;;5067947;28;20084;-55
2024/03/13 11:53:32;;;;;;;14.25;9.40;;;;;;;;;;5060926;28;20033;-52
2024/03/13 11:55:59;;;;;;;15.00;8.50;;;;;;;;;;5067752;28;20032;-54
2024/03/13 11:58:31;;;;;;;13.20;8.33;;;;;;;;;;5068116;28;20092;-56
2024/03/13 12:00:57;;;;;;;12.60;8.02;;;;;;;;;;5067997;28;20028;-55
2024/03/13 12:03:39;;;;;;;14.55;8.10;;;;;;;;;;5049426;28;20025;-53
2024/03/13 12:06:07;;;;;;;10.75;6.30;;;;;;;;;;5067766;28;20483;-55
2024/03/13 12:08:34;;;;;;;10.82;7.05;;;;;;;;;;5067893;28;20029;-53
2024/03/13 12:11:00;;;;;;;13.75;7.97;;;;;;;;;;5067618;28;20093;-52
2024/03/13 12:13:30;;;;;;;10.30;6.10;;;;;;;;;;5066956;28;20024;-54
2024/03/13 12:15:58;;;;;;;11.93;7.60;;;;;;;;;;5070939;28;20112;-53
2024/03/13 12:18:26;;;;;;;10.90;6.40;;;;;;;;;;5071302;28;20482;-54
2024/03/13 12:20:52;;;;;;;11.00;6.85;;;;;;;;;;5071749;28;20051;-54
2024/03/13 12:23:19;;;;;;;11.73;6.13;;;;;;;;;;5070311;28;20118;-54
2024/03/13 12:25:45;;;;;;;11.85;6.88;;;;;;;;;;5071610;28;20485;-54
2024/03/13 12:28:16;;;;;;;9.85;5.82;;;;;;;;;;5071752;28;20021;-52
2024/03/13 12:30:43;;;;;;;14.38;7.70;;;;;;;;;;5071588;28;20062;-53
2024/03/13 12:33:11;;;;;;;12.95;7.68;;;;;;;;;;5070841;28;20590;-49
2024/03/13 12:35:37;;;;;;;9.10;5.40;;;;;;;;;;5053148;28;20177;-56
2024/03/13 12:38:03;;;;;;;9.18;5.55;;;;;;;;;;5071156;28;20114;-55
2024/03/13 12:40:30;;;;;;;9.55;5.63;;;;;;;;;;5071291;28;20020;-50
2024/03/13 12:42:56;;;;;;;15.15;8.27;;;;;;;;;;5071153;28;20100;-52
2024/03/13 12:45:24;;;;;;;11.90;7.28;;;;;;;;;;5071071;28;20021;-56
2024/03/13 12:47:50;;;;;;;10.10;6.00;;;;;;;;;;5070925;28;20362;-52
2024/03/13 12:50:17;;;;;;;13.20;7.55;;;;;;;;;;5071109;28;20060;-56
2024/03/13 12:52:44;;;;;;;11.18;7.05;;;;;;;;;;5070261;28;20040;-54
2024/03/13 12:55:12;;;;;;;9.90;6.03;;;;;;;;;;5070603;28;20036;-49
2024/03/13 12:57:38;;;;;;;11.00;7.38;;;;;;;;;;5071079;28;20161;-49
2024/03/13 13:00:14;;;;;;;11.90;7.53;;;;;;;;;;5052925;28;20064;-55
2024/03/13 13:02:43;;;;;;;15.80;9.15;;;;;;;;;;5069795;28;20039;-51
2024/03/13 13:05:10;;;;;;;12.63;7.32;;;;;;;;;;5069502;28;20051;-53
2024/03/13 13:07:38;;;;;;;13.38;6.15;;;;;;;;;;5069806;28;20100;-56
2024/03/13 13:10:09;;;;;;;10.25;6.03;;;;;;;;;;5069711;28;20490;-53
2024/03/13 13:12:35;;;;;;;20.35;11.95;;;;;;;;;;5068996;28;20037;-54
2024/03/13 13:15:01;;;;;;;11.05;7.68;;;;;;;;;;5069557;28;20020;-55
2024/03/13 13:17:27;;;;;;;12.57;8.43;;;;;;;;;;5069568;28;20032;-52
2024/03/13 13:19:53;;;;;;;10.15;5.60;;;;;;;;;;5070363;28;20032;-54
2024/03/13 13:22:19;;;;;;;9.30;5.50;;;;;;;;;;5069608;28;20027;-49
2024/03/13 13:24:45;;;;;;;12.57;7.20;;;;;;;;;;5069691;28;20494;-52
2024/03/13 13:27:13;;;;;;;12.07;7.38;;;;;;;;;;5070405;28;20024;-54
2024/03/13 13:29:39;;;;;;;16.90;13.48;;;;;;;;;;5070225;28;20028;-53
2024/03/13 13:32:06;;;;;;;11.35;6.65;;;;;;;;;;5069957;28;20025;-54
2024/03/13 13:34:32;;;;;;;16.80;9.30;;;;;;;;;;5051460;28;20474;-51
2024/03/13 13:36:58;;;;;;;11.02;7.75;;;;;;;;;;5069973;28;20056;-56
2024/03/13 13:39:24;;;;;;;13.30;8.23;;;;;;;;;;5069760;28;20398;-56
2024/03/13 13:41:50;;;;;;;10.50;6.20;;;;;;;;;;5069726;28;20020;-57
2024/03/13 13:44:16;;;;;;;11.52;7.03;;;;;;;;;;5068895;28;20035;-57
2024/03/13 13:46:42;;;;;;;17.65;11.20;;;;;;;;;;5052033;28;20362;-56
2024/03/13 13:49:09;;;;;;;14.60;8.48;;;;;;;;;;5069789;28;20023;-56
2024/03/13 13:51:35;;;;;;;11.43;6.75;;;;;;;;;;5069463;28;20017;-54
2024/03/13 13:54:01;;;;;;;9.93;5.82;;;;;;;;;;5069113;28;20537;-55
2024/03/13 13:56:27;;;;;;;22.38;6.95;;;;;;;;;;5069598;28;20036;-54
2024/03/13 13:58:54;;;;;;;13.82;8.80;;;;;;;;;;5069718;28;20096;-52
2024/03/13 14:01:20;;;;;;;11.18;7.25;;;;;;;;;;5069559;28;20397;-55
2024/03/13 14:03:46;;;;;;;14.00;8.77;;;;;;;;;;5069312;28;20025;-55
2024/03/13 14:06:12;;;;;;;11.88;6.55;;;;;;;;;;5069690;28;20024;-52
2024/03/13 14:08:39;;;;;;;12.73;7.28;;;;;;;;;;5069552;28;20092;-53
2024/03/13 14:11:06;;;;;;;11.88;7.35;;;;;;;;;;5068923;28;20025;-57
2024/03/13 14:13:38;;;;;;;11.00;7.78;;;;;;;;;;5068252;28;20028;-53
2024/03/13 14:16:04;;;;;;;12.23;6.68;;;;;;;;;;5068739;28;20025;-53
2024/03/13 14:18:31;;;;;;;12.32;7.95;;;;;;;;;;5069028;28;20028;-52
2024/03/13 14:20:57;;;;;;;11.55;6.97;;;;;;;;;;5069093;28;20133;-52
2024/03/13 14:23:23;;;;;;;12.32;7.32;;;;;;;;;;5068057;28;20029;-56
2024/03/13 14:25:49;;;;;;;11.95;6.75;;;;;;;;;;5068424;28;20169;-51
2024/03/13 14:28:15;;;;;;;11.93;7.75;;;;;;;;;;5067928;28;20025;-53
2024/03/13 14:30:41;;;;;;;11.60;6.82;;;;;;;;;;5068807;28;20517;-53
2024/03/13 14:33:07;;;;;;;9.95;5.97;;;;;;;;;;5068365;28;20040;-56
2024/03/13 14:35:33;;;;;;;12.70;7.63;;;;;;;;;;5068520;28;20035;-53
2024/03/13 14:37:59;;;;;;;11.70;6.95;;;;;;;;;;5067732;28;20039;-50
2024/03/13 14:40:25;;;;;;;11.60;6.70;;;;;;;;;;5050882;28;20363;-54
2024/03/13 14:42:51;;;;;;;10.45;6.13;;;;;;;;;;5067817;28;20068;-52
2024/03/13 14:45:18;;;;;;;11.88;7.32;;;;;;;;;;5068545;28;20035;-54
2024/03/13 14:47:45;;;;;;;10.77;6.30;;;;;;;;;;5068655;28;20021;-54
2024/03/13 14:50:12;;;;;;;10.93;6.35;;;;;;;;;;5068991;28;20421;-55
2024/03/13 14:52:38;;;;;;;11.70;6.50;;;;;;;;;;5067767;28;20393;-54